createdAt,value
2022-10-21T00:00:09.967Z,7.82
2022-10-21T00:02:36.881Z,9.05
2022-10-21T00:05:04.389Z,8.88
2022-10-21T00:07:31.003Z,9.25
2022-10-21T00:09:57.651Z,9.15
2022-10-21T00:12:24.286Z,9.15
2022-10-21T00:14:53.601Z,9.63
2022-10-21T00:17:23.044Z,9.50
2022-10-21T00:19:49.663Z,8.15
2022-10-21T00:22:16.293Z,8.88
2022-10-21T00:24:42.901Z,8.77
2022-10-21T00:27:09.507Z,9.90
2022-10-21T00:29:36.198Z,9.25
2022-10-21T00:32:02.882Z,9.55
2022-10-21T00:34:30.947Z,9.50
2022-10-21T00:36:58.049Z,8.93
2022-10-21T00:39:24.665Z,8.73
2022-10-21T00:41:51.253Z,9.75
2022-10-21T00:44:17.884Z,9.18
2022-10-21T00:46:56.641Z,9.57
2022-10-21T00:49:37.430Z,9.75
2022-10-21T00:52:05.261Z,10.00
2022-10-21T00:54:31.852Z,8.25
2022-10-21T00:56:58.500Z,9.05
2022-10-21T00:59:26.747Z,8.50
2022-10-21T01:01:53.620Z,9.40
2022-10-21T01:04:20.324Z,8.82
2022-10-21T01:06:46.922Z,9.35
2022-10-21T01:09:13.821Z,9.52
2022-10-21T01:11:42.765Z,9.40
2022-10-21T01:17:43.709Z,9.30
2022-10-21T01:20:36.874Z,8.95
2022-10-21T01:26:21.501Z,10.55
2022-10-21T01:29:12.172Z,9.27
2022-10-21T01:31:50.445Z,8.27
2022-10-21T01:34:34.672Z,8.65
2022-10-21T01:37:08.748Z,8.25
2022-10-21T01:39:41.318Z,9.48
2022-10-21T01:42:32.932Z,9.55
2022-10-21T01:45:23.946Z,8.50
2022-10-21T01:47:53.086Z,8.90
2022-10-21T01:50:22.652Z,9.40
2022-10-21T01:52:54.681Z,8.63
2022-10-21T01:55:21.986Z,8.45
2022-10-21T01:57:52.292Z,9.85
2022-10-21T02:00:19.296Z,9.70
2022-10-21T02:02:47.442Z,8.98
2022-10-21T02:05:18.068Z,9.27
2022-10-21T02:07:44.681Z,8.05
2022-10-21T02:10:11.321Z,9.75
2022-10-21T02:12:38.429Z,9.23
2022-10-21T02:15:06.930Z,9.30
2022-10-21T02:17:33.508Z,9.23
2022-10-21T02:20:00.874Z,7.85
2022-10-21T02:22:27.535Z,9.00
2022-10-21T02:24:56.761Z,9.73
2022-10-21T02:27:23.445Z,9.68
2022-10-21T02:29:51.534Z,8.73
2022-10-21T02:32:39.416Z,8.82
2022-10-21T02:35:31.693Z,8.80
2022-10-21T02:38:22.315Z,8.35
2022-10-21T02:40:52.871Z,8.27
2022-10-21T02:43:25.429Z,8.85
2022-10-21T02:45:53.145Z,9.27
2022-10-21T02:48:19.738Z,8.43
2022-10-21T02:50:46.345Z,8.90
2022-10-21T02:53:12.965Z,10.88
2022-10-21T02:55:39.536Z,8.95
2022-10-21T02:58:06.180Z,9.80
2022-10-21T03:00:33.149Z,8.35
2022-10-21T03:03:00.036Z,7.82
2022-10-21T03:05:26.660Z,9.70
2022-10-21T03:07:53.312Z,8.75
2022-10-21T03:10:19.948Z,9.10
2022-10-21T03:12:47.509Z,8.30
2022-10-21T03:15:14.154Z,8.38
2022-10-21T03:17:41.127Z,7.80
2022-10-21T03:20:08.318Z,8.77
2022-10-21T03:22:34.898Z,9.05
2022-10-21T03:25:01.544Z,7.88
2022-10-21T03:27:28.180Z,8.23
2022-10-21T03:29:54.788Z,7.88
2022-10-21T03:32:21.405Z,8.27
2022-10-21T03:34:48.030Z,10.13
2022-10-21T03:37:14.666Z,8.38
2022-10-21T03:39:41.225Z,7.50
2022-10-21T03:42:07.877Z,7.32
2022-10-21T03:44:34.495Z,8.32
2022-10-21T03:47:01.083Z,8.40
2022-10-21T03:49:27.691Z,8.38
2022-10-21T03:51:54.410Z,8.73
2022-10-21T03:54:21.000Z,8.10
2022-10-21T03:56:47.618Z,7.93
2022-10-21T03:59:14.291Z,7.72
2022-10-21T04:01:40.980Z,7.18
2022-10-21T04:04:07.638Z,8.05
2022-10-21T04:06:34.313Z,8.27
2022-10-21T04:09:01.031Z,7.20
2022-10-21T04:11:27.673Z,7.88
2022-10-21T04:13:54.271Z,7.72
2022-10-21T04:16:21.354Z,6.88
2022-10-21T04:18:48.019Z,7.38
2022-10-21T04:21:14.793Z,7.70
2022-10-21T04:23:41.565Z,7.20
2022-10-21T04:26:08.300Z,7.13
2022-10-21T04:28:35.121Z,8.30
2022-10-21T04:31:01.761Z,6.53
2022-10-21T04:33:28.428Z,7.78
2022-10-21T04:35:55.343Z,7.60
2022-10-21T04:38:22.942Z,6.25
2022-10-21T04:40:56.276Z,8.50
2022-10-21T04:43:22.901Z,6.63
2022-10-21T04:45:49.505Z,6.90
2022-10-21T04:48:16.095Z,6.35
2022-10-21T04:50:42.741Z,6.63
2022-10-21T04:53:09.345Z,7.15
2022-10-21T04:55:39.101Z,7.40
2022-10-21T04:58:05.930Z,7.00
2022-10-21T05:00:32.593Z,7.35
2022-10-21T05:02:59.349Z,7.47
2022-10-21T05:05:25.980Z,7.50
2022-10-21T05:07:52.574Z,7.63
2022-10-21T05:10:19.177Z,8.65
2022-10-21T05:12:45.750Z,7.57
2022-10-21T05:15:14.579Z,8.75
2022-10-21T05:17:41.681Z,7.15
2022-10-21T05:20:08.894Z,7.15
2022-10-21T05:22:36.295Z,8.43
2022-10-21T05:25:03.284Z,7.63
2022-10-21T05:27:29.930Z,7.50
2022-10-21T05:29:58.265Z,7.57
2022-10-21T05:32:25.027Z,7.45
2022-10-21T05:34:51.640Z,8.18
2022-10-21T05:37:18.244Z,7.85
2022-10-21T05:39:44.825Z,6.68
2022-10-21T05:42:11.450Z,8.50
2022-10-21T05:44:38.109Z,7.07
2022-10-21T05:47:04.673Z,7.97
2022-10-21T05:49:31.386Z,7.47
2022-10-21T05:51:57.987Z,8.18
2022-10-21T05:54:24.586Z,7.40
2022-10-21T05:56:51.265Z,6.88
2022-10-21T05:59:17.906Z,7.18
2022-10-21T06:01:44.535Z,6.55
2022-10-21T06:04:11.155Z,8.68
2022-10-21T06:06:37.791Z,6.75
2022-10-21T06:09:04.455Z,7.70
2022-10-21T06:11:31.081Z,7.28
2022-10-21T06:13:57.765Z,8.05
2022-10-21T06:16:24.451Z,6.80
2022-10-21T06:18:51.076Z,6.72
2022-10-21T06:21:17.763Z,7.28
2022-10-21T06:23:44.420Z,7.80
2022-10-21T06:26:12.132Z,6.25
2022-10-21T06:28:40.246Z,7.28
2022-10-21T06:31:07.360Z,7.38
2022-10-21T06:33:34.297Z,7.88
2022-10-21T06:36:00.908Z,8.00
2022-10-21T06:38:27.568Z,7.93
2022-10-21T06:41:01.119Z,8.60
2022-10-21T06:43:27.777Z,9.15
2022-10-21T06:45:59.499Z,9.10
2022-10-21T06:48:26.108Z,7.82
2022-10-21T06:51:00.230Z,8.40
2022-10-21T06:53:27.130Z,7.70
2022-10-21T06:56:11.174Z,8.40
2022-10-21T06:58:38.404Z,8.48
2022-10-21T07:01:16.502Z,9.95
2022-10-21T07:03:54.841Z,9.00
2022-10-21T07:06:21.630Z,9.00
2022-10-21T07:08:57.891Z,9.90
2022-10-21T07:11:25.220Z,8.32
2022-10-21T07:13:51.835Z,9.60
2022-10-21T07:16:25.325Z,9.70
2022-10-21T07:18:52.046Z,10.32
2022-10-21T07:21:20.320Z,7.50
2022-10-21T07:23:47.960Z,8.60
2022-10-21T07:26:15.044Z,8.25
2022-10-21T07:28:43.268Z,8.40
2022-10-21T07:31:09.976Z,8.65
2022-10-21T07:33:36.821Z,8.75
2022-10-21T07:36:06.069Z,7.28
2022-10-21T07:38:33.017Z,8.00
2022-10-21T07:40:59.756Z,7.57
2022-10-21T07:43:26.470Z,8.23
2022-10-21T07:45:53.520Z,7.35
2022-10-21T07:48:20.282Z,9.48
2022-10-21T07:50:46.947Z,7.53
2022-10-21T07:53:14.886Z,7.20
2022-10-21T07:55:41.849Z,8.00
2022-10-21T07:58:08.443Z,7.35
2022-10-21T08:00:35.140Z,7.22
2022-10-21T08:03:01.787Z,7.82
2022-10-21T08:05:28.410Z,7.85
2022-10-21T08:07:54.999Z,5.78
2022-10-21T08:10:21.774Z,8.07
2022-10-21T08:12:48.391Z,7.20
2022-10-21T08:15:15.402Z,7.55
2022-10-21T08:17:41.990Z,6.88
2022-10-21T08:20:09.007Z,6.32
2022-10-21T08:22:35.807Z,6.15
2022-10-21T08:25:02.732Z,5.47
2022-10-21T08:27:29.982Z,6.25
2022-10-21T08:29:56.638Z,6.88
2022-10-21T08:32:23.262Z,7.88
2022-10-21T08:34:49.831Z,6.50
2022-10-21T08:37:16.623Z,6.18
2022-10-21T08:39:43.203Z,7.35
2022-10-21T08:42:12.333Z,8.30
2022-10-21T08:44:48.230Z,7.85
2022-10-21T08:47:29.960Z,9.27
2022-10-21T08:50:00.871Z,12.57
2022-10-21T08:52:46.413Z,6.90
2022-10-21T08:55:33.498Z,6.38
2022-10-21T08:58:00.299Z,7.00
2022-10-21T09:00:48.647Z,6.55
2022-10-21T09:03:25.045Z,5.28
2022-10-21T09:08:39.598Z,5.55
2022-10-21T09:11:44.022Z,5.13
2022-10-21T09:14:50.559Z,5.97
2022-10-21T09:17:57.104Z,5.93
2022-10-21T09:20:46.563Z,4.78
2022-10-21T09:23:40.978Z,5.80
2022-10-21T09:26:30.612Z,7.00
2022-10-21T09:28:57.557Z,5.10
2022-10-21T09:31:24.200Z,5.07
2022-10-21T09:33:54.856Z,5.28
2022-10-21T09:36:26.268Z,5.38
2022-10-21T09:39:02.538Z,5.30
2022-10-21T09:41:32.801Z,5.35
2022-10-21T09:43:59.406Z,5.40
2022-10-21T09:46:26.139Z,5.93
2022-10-21T09:49:25.853Z,5.40
2022-10-21T09:51:42.635Z,7.88
2022-10-21T09:54:13.709Z,7.03
2022-10-21T09:56:46.989Z,7.20
2022-10-21T09:59:15.068Z,8.70
2022-10-21T10:01:42.420Z,9.75
2022-10-21T10:04:32.973Z,11.52
2022-10-21T10:07:18.108Z,10.65
2022-10-21T10:09:45.539Z,12.55
2022-10-21T10:12:13.446Z,10.90
2022-10-21T10:14:41.887Z,11.10
2022-10-21T10:17:35.530Z,11.70
2022-10-21T10:22:43.956Z,12.25
2022-10-21T10:25:21.721Z,13.35
2022-10-21T10:27:52.448Z,13.25
2022-10-21T10:30:19.320Z,13.68
2022-10-21T10:32:46.115Z,10.85
2022-10-21T10:35:33.942Z,11.68
2022-10-21T10:38:02.244Z,12.13
2022-10-21T10:40:39.438Z,12.70
2022-10-21T10:43:16.209Z,10.88
2022-10-21T10:45:59.991Z,11.65
2022-10-21T10:48:35.814Z,12.90
2022-10-21T10:51:06.647Z,12.40
2022-10-21T10:53:36.178Z,10.63
2022-10-21T10:56:23.355Z,9.82
2022-10-21T10:58:55.260Z,10.43
2022-10-21T11:01:25.887Z,12.10
2022-10-21T11:03:59.362Z,11.20
2022-10-21T11:06:37.881Z,11.43
2022-10-21T11:09:05.697Z,10.05
2022-10-21T11:11:38.320Z,8.68
2022-10-21T11:14:05.337Z,10.38
2022-10-21T11:19:46.879Z,10.27
2022-10-21T11:22:25.250Z,10.10
2022-10-21T11:25:21.129Z,9.60
2022-10-21T11:28:13.220Z,9.40
2022-10-21T11:39:38.943Z,8.45
2022-10-21T11:42:17.547Z,8.07
2022-10-21T11:47:41.152Z,7.65
2022-10-21T11:56:19.749Z,6.72
2022-10-21T11:59:09.959Z,7.10
2022-10-21T12:02:01.957Z,6.95
2022-10-21T12:04:35.060Z,7.28
2022-10-21T12:09:54.105Z,6.50
2022-10-21T12:12:23.755Z,6.93
2022-10-21T12:14:54.928Z,7.32
2022-10-21T12:17:22.236Z,6.82
2022-10-21T12:19:57.440Z,8.02
2022-10-21T12:22:26.515Z,6.47
2022-10-21T12:25:14.693Z,5.93
2022-10-21T12:27:45.586Z,7.22
2022-10-21T12:30:24.808Z,5.88
2022-10-21T12:33:33.050Z,6.15
2022-10-21T12:39:00.557Z,5.47
2022-10-21T12:41:31.714Z,5.63
2022-10-21T12:46:46.090Z,4.60
2022-10-21T12:52:15.485Z,4.63
2022-10-21T12:54:59.820Z,5.00
2022-10-21T12:57:33.465Z,4.40
2022-10-21T13:13:48.250Z,4.53
2022-10-21T13:16:21.378Z,4.38
2022-10-21T13:18:54.748Z,4.63
2022-10-21T13:21:25.143Z,4.55
2022-10-21T13:23:52.577Z,4.70
2022-10-21T13:26:21.415Z,6.35
2022-10-21T13:28:58.692Z,4.47
2022-10-21T13:31:25.325Z,4.07
2022-10-21T13:33:52.777Z,5.38
2022-10-21T13:39:08.862Z,4.10
2022-10-21T13:41:35.722Z,4.25
2022-10-21T13:44:06.178Z,4.43
2022-10-21T13:46:40.691Z,3.83
2022-10-21T13:49:30.849Z,2.92
2022-10-21T13:51:58.023Z,3.50
2022-10-21T13:54:24.799Z,3.40
2022-10-21T13:56:51.585Z,3.22
2022-10-21T13:59:27.280Z,3.15
2022-10-21T14:01:55.261Z,3.40
2022-10-21T14:04:23.981Z,3.45
2022-10-21T14:06:58.959Z,3.50
2022-10-21T14:09:29.166Z,3.83
2022-10-21T14:11:58.522Z,2.70
2022-10-21T14:14:25.309Z,4.68
2022-10-21T14:16:54.699Z,3.10
2022-10-21T14:19:23.271Z,3.47
2022-10-21T14:21:52.412Z,3.75
2022-10-21T14:27:18.733Z,2.72
2022-10-21T14:29:45.506Z,3.42
2022-10-21T14:32:16.374Z,3.10
2022-10-21T14:35:06.006Z,3.22
2022-10-21T14:37:46.138Z,2.95
2022-10-21T14:40:32.581Z,2.70
2022-10-21T14:43:02.805Z,3.00
2022-10-21T14:45:32.476Z,2.95
2022-10-21T14:48:22.203Z,3.60
2022-10-21T14:50:53.537Z,4.50
2022-10-21T14:53:22.968Z,3.40
2022-10-21T14:55:53.434Z,3.42
2022-10-21T14:58:23.081Z,2.30
2022-10-21T15:00:58.893Z,3.20
2022-10-21T15:03:46.491Z,5.28
2022-10-21T15:06:23.672Z,4.47
2022-10-21T15:09:04.874Z,22.60
2022-10-21T15:11:34.064Z,3.72
2022-10-21T15:14:20.821Z,2.53
2022-10-21T15:16:50.268Z,2.90
2022-10-21T15:22:31.587Z,2.70
2022-10-21T15:25:04.356Z,2.28
2022-10-21T15:30:15.898Z,2.97
2022-10-21T15:32:42.540Z,3.00
2022-10-21T15:35:13.823Z,2.83
2022-10-21T15:37:40.776Z,2.85
2022-10-21T15:40:08.215Z,2.88
2022-10-21T15:42:34.855Z,2.55
2022-10-21T15:45:01.915Z,2.65
2022-10-21T15:47:28.513Z,3.47
2022-10-21T15:49:56.123Z,2.90
2022-10-21T15:52:22.957Z,2.17
2022-10-21T15:54:49.559Z,1.90
2022-10-21T15:57:19.618Z,2.13
2022-10-21T15:59:46.550Z,2.47
2022-10-21T16:02:16.602Z,2.50
2022-10-21T16:04:44.092Z,2.53
2022-10-21T16:07:17.653Z,2.70
2022-10-21T16:09:44.336Z,1.88
2022-10-21T16:12:11.123Z,2.45
2022-10-21T16:14:37.765Z,2.08
2022-10-21T16:17:04.446Z,2.08
2022-10-21T16:19:31.100Z,2.20
2022-10-21T16:21:57.807Z,2.60
2022-10-21T16:24:24.493Z,1.88
2022-10-21T16:26:51.109Z,1.88
2022-10-21T16:29:20.220Z,2.50
2022-10-21T16:31:47.274Z,1.45
2022-10-21T16:34:13.916Z,2.25
2022-10-21T16:36:40.522Z,2.20
2022-10-21T16:39:15.132Z,2.33
2022-10-21T16:41:41.911Z,2.13
2022-10-21T16:44:08.566Z,2.58
2022-10-21T16:46:36.884Z,1.90
2022-10-21T16:49:09.219Z,2.80
2022-10-21T16:51:38.738Z,2.58
2022-10-21T16:54:05.430Z,2.50
2022-10-21T16:56:32.221Z,2.42
2022-10-21T16:58:58.854Z,2.58
2022-10-21T17:01:25.491Z,3.10
2022-10-21T17:03:52.197Z,2.80
2022-10-21T17:06:21.602Z,2.28
2022-10-21T17:08:49.534Z,2.90
2022-10-21T17:11:33.340Z,2.67
2022-10-21T17:14:00.734Z,3.63
2022-10-21T17:16:27.384Z,2.22
2022-10-21T17:18:54.060Z,2.38
2022-10-21T17:21:22.680Z,2.50
2022-10-21T17:23:49.840Z,2.38
2022-10-21T17:26:16.699Z,2.08
2022-10-21T17:28:43.324Z,2.90
2022-10-21T17:31:14.851Z,2.83
2022-10-21T17:33:41.807Z,2.72
2022-10-21T17:36:08.667Z,2.75
2022-10-21T17:38:35.241Z,3.35
2022-10-21T17:41:02.021Z,2.88
2022-10-21T17:43:28.670Z,3.45
2022-10-21T17:45:56.194Z,3.63
2022-10-21T17:48:25.211Z,2.88
2022-10-21T17:50:55.963Z,2.65
2022-10-21T17:53:22.867Z,3.03
2022-10-21T17:56:00.951Z,2.88
2022-10-21T17:58:28.217Z,2.65
2022-10-21T18:00:58.107Z,3.30
2022-10-21T18:03:25.737Z,3.90
2022-10-21T18:05:52.942Z,3.30
2022-10-21T18:08:19.620Z,3.40
2022-10-21T18:10:55.358Z,4.47
2022-10-21T18:13:22.839Z,3.03
2022-10-21T18:15:50.414Z,3.60
2022-10-21T18:18:18.222Z,3.75
2022-10-21T18:20:44.932Z,4.18
2022-10-21T18:23:11.880Z,3.72
2022-10-21T18:25:39.413Z,3.00
2022-10-21T18:28:06.315Z,2.40
2022-10-21T18:30:33.535Z,2.50
2022-10-21T18:33:00.381Z,2.55
2022-10-21T18:35:28.702Z,2.80
2022-10-21T18:37:56.757Z,2.38
2022-10-21T18:40:23.596Z,2.40
2022-10-21T18:42:50.247Z,2.53
2022-10-21T18:45:16.909Z,2.30
2022-10-21T18:47:47.208Z,2.05
2022-10-21T18:50:14.394Z,2.15
2022-10-21T18:52:41.149Z,2.17
2022-10-21T18:55:08.372Z,2.28
2022-10-21T18:57:35.029Z,2.53
2022-10-21T19:00:01.697Z,2.70
2022-10-21T19:02:28.306Z,3.30
2022-10-21T19:04:57.145Z,2.55
2022-10-21T19:07:26.351Z,2.85
2022-10-21T19:09:53.033Z,2.97
2022-10-21T19:12:23.191Z,2.67
2022-10-21T19:14:50.155Z,2.33
2022-10-21T19:17:17.005Z,2.05
2022-10-21T19:19:43.613Z,2.65
2022-10-21T19:22:10.227Z,2.55
2022-10-21T19:24:36.845Z,5.05
2022-10-21T19:27:04.029Z,2.95
2022-10-21T19:29:30.727Z,2.72
2022-10-21T19:31:57.420Z,2.30
2022-10-21T19:34:26.749Z,2.13
2022-10-21T19:36:53.478Z,2.35
2022-10-21T19:39:20.442Z,2.35
2022-10-21T19:41:47.176Z,2.03
2022-10-21T19:44:13.853Z,1.98
2022-10-21T19:46:40.547Z,2.30
2022-10-21T19:49:07.758Z,2.05
2022-10-21T19:51:34.465Z,1.65
2022-10-21T19:54:03.812Z,1.90
2022-10-21T19:56:34.015Z,2.10
2022-10-21T19:59:02.487Z,2.40
2022-10-21T20:01:29.691Z,2.13
2022-10-21T20:03:56.442Z,1.75
2022-10-21T20:06:26.464Z,1.75
2022-10-21T20:08:55.038Z,2.20
2022-10-21T20:11:21.794Z,1.75
2022-10-21T20:13:49.034Z,2.00
2022-10-21T20:16:16.614Z,1.95
2022-10-21T20:18:43.314Z,2.03
2022-10-21T20:21:09.979Z,1.58
2022-10-21T20:23:36.659Z,2.25
2022-10-21T20:26:03.410Z,1.80
2022-10-21T20:28:30.250Z,1.60
2022-10-21T20:31:01.644Z,2.13
2022-10-21T20:33:30.079Z,1.80
2022-10-21T20:35:56.770Z,2.20
2022-10-21T20:38:23.459Z,2.40
2022-10-21T20:41:07.056Z,1.92
2022-10-21T20:43:35.193Z,1.80
2022-10-21T20:46:02.703Z,2.33
2022-10-21T20:48:29.331Z,1.90
2022-10-21T20:51:05.589Z,1.83
2022-10-21T20:53:32.252Z,1.42
2022-10-21T20:55:59.140Z,1.55
2022-10-21T20:58:25.775Z,1.33
2022-10-21T21:00:52.524Z,1.90
2022-10-21T21:03:19.231Z,1.83
2022-10-21T21:05:45.887Z,1.38
2022-10-21T21:08:13.708Z,1.55
2022-10-21T21:10:40.422Z,1.30
2022-10-21T21:13:07.196Z,1.15
2022-10-21T21:15:33.843Z,1.80
2022-10-21T21:18:03.288Z,1.77
2022-10-21T21:20:29.976Z,2.60
2022-10-21T21:22:56.592Z,1.40
2022-10-21T21:25:23.273Z,2.13
2022-10-21T21:27:49.868Z,1.70
2022-10-21T21:30:16.512Z,1.73
2022-10-21T21:32:43.549Z,1.95
2022-10-21T21:35:10.621Z,1.63
2022-10-21T21:37:37.328Z,1.60
2022-10-21T21:40:04.583Z,2.35
2022-10-21T21:42:31.209Z,1.88
2022-10-21T21:44:57.921Z,1.67
2022-10-21T21:47:24.555Z,2.05
2022-10-21T21:49:51.155Z,1.67
2022-10-21T21:52:17.737Z,1.83
2022-10-21T21:54:44.376Z,2.20
2022-10-21T21:57:26.717Z,2.15
2022-10-21T21:59:54.237Z,1.92
2022-10-21T22:02:21.257Z,2.10
2022-10-21T22:04:47.853Z,2.80
2022-10-21T22:07:14.529Z,2.60
2022-10-21T22:09:41.193Z,1.95
2022-10-21T22:12:07.783Z,2.92
2022-10-21T22:14:34.509Z,2.63
2022-10-21T22:17:01.101Z,2.13
2022-10-21T22:19:27.894Z,2.05
2022-10-21T22:21:54.496Z,2.50
2022-10-21T22:24:21.575Z,2.53
2022-10-21T22:26:48.297Z,1.98
2022-10-21T22:29:14.891Z,1.77
2022-10-21T22:31:42.344Z,1.65
2022-10-21T22:34:11.102Z,1.77
2022-10-21T22:36:38.911Z,2.30
2022-10-21T22:39:05.557Z,1.80
2022-10-21T22:41:32.144Z,1.73
2022-10-21T22:43:58.883Z,1.90
2022-10-21T22:46:40.960Z,1.95
2022-10-21T22:49:07.679Z,2.27
2022-10-21T22:51:34.439Z,2.38
2022-10-21T22:54:01.522Z,2.28
2022-10-21T22:56:28.387Z,2.55
2022-10-21T22:58:55.050Z,2.00
2022-10-21T23:01:23.729Z,1.65
2022-10-21T23:03:50.443Z,2.13
2022-10-21T23:06:17.073Z,2.05
2022-10-21T23:08:43.723Z,2.17
2022-10-21T23:11:10.345Z,2.28
2022-10-21T23:13:36.950Z,1.90
2022-10-21T23:16:03.742Z,2.05
2022-10-21T23:18:30.346Z,2.15
2022-10-21T23:20:56.996Z,2.38
2022-10-21T23:23:23.724Z,2.60
2022-10-21T23:25:50.343Z,2.22
2022-10-21T23:30:45.054Z,2.20
2022-10-21T23:33:11.664Z,2.20
2022-10-21T23:35:38.418Z,2.55
2022-10-21T23:38:05.107Z,2.13
2022-10-21T23:40:31.691Z,2.25
2022-10-21T23:42:58.273Z,2.40
2022-10-21T23:45:24.868Z,2.38
2022-10-21T23:47:51.551Z,2.38
2022-10-21T23:50:18.268Z,2.85
2022-10-21T23:52:44.896Z,2.95
2022-10-21T23:55:11.606Z,2.50
2022-10-21T23:57:38.441Z,3.03
